createdAt,value
2018-03-23T00:01:57.168Z,93396.95
2018-03-23T00:04:24.522Z,93402.94
2018-03-23T00:06:51.876Z,93402.73
2018-03-23T00:09:19.251Z,93399.66
2018-03-23T00:11:46.619Z,93394.55
2018-03-23T00:14:13.955Z,93389.81
2018-03-23T00:16:41.546Z,93387.78
2018-03-23T00:19:08.932Z,93383.69
2018-03-23T00:21:37.016Z,93386.20
2018-03-23T00:24:04.366Z,93387.16
2018-03-23T00:26:31.704Z,93384.73
2018-03-23T00:28:59.780Z,93381.45
2018-03-23T00:31:27.825Z,93374.11
2018-03-23T00:33:55.184Z,93372.58
2018-03-23T00:36:22.509Z,93367.30
2018-03-23T00:38:49.867Z,93369.52
2018-03-23T00:41:17.210Z,93367.15
2018-03-23T00:43:44.599Z,93360.28
2018-03-23T00:46:11.914Z,93360.09
2018-03-23T00:48:39.844Z,93359.04
2018-03-23T00:51:07.821Z,93356.20
2018-03-23T00:53:35.188Z,93350.54
2018-03-23T00:56:02.569Z,93351.09
2018-03-23T00:58:29.891Z,93345.37
2018-03-23T01:00:57.252Z,93346.87
2018-03-23T01:03:24.627Z,93343.02
2018-03-23T01:05:52.006Z,93339.20
2018-03-23T01:08:19.337Z,93339.80
2018-03-23T01:10:46.730Z,93342.15
2018-03-23T01:13:14.115Z,93336.48
2018-03-23T01:15:41.470Z,93333.41
2018-03-23T01:18:08.854Z,93334.77
2018-03-23T01:20:36.323Z,93334.63
2018-03-23T01:23:03.648Z,93334.04
2018-03-23T01:25:31.233Z,93322.80
2018-03-23T01:27:58.543Z,93334.97
2018-03-23T01:30:25.851Z,93332.73
2018-03-23T01:32:53.251Z,93323.63
2018-03-23T01:35:20.558Z,93313.62
2018-03-23T01:37:48.822Z,93314.34
2018-03-23T01:40:16.179Z,93317.08
2018-03-23T01:42:43.554Z,93323.20
2018-03-23T01:45:10.881Z,93316.95
2018-03-23T01:47:38.248Z,93322.59
2018-03-23T01:50:05.677Z,93317.98
2018-03-23T01:52:33.926Z,93312.67
2018-03-23T01:55:02.144Z,93313.34
2018-03-23T01:57:29.537Z,93309.87
2018-03-23T01:59:56.919Z,93309.83
2018-03-23T02:02:24.213Z,93302.00
2018-03-23T02:04:51.598Z,93304.23
2018-03-23T02:07:18.932Z,93303.51
2018-03-23T02:09:46.275Z,93302.13
2018-03-23T02:12:14.584Z,93299.69
2018-03-23T02:14:41.888Z,93295.81
2018-03-23T02:17:09.315Z,93290.42
2018-03-23T02:19:36.759Z,93288.23
2018-03-23T02:22:04.203Z,93290.37
2018-03-23T02:24:31.580Z,93291.17
2018-03-23T02:26:59.452Z,93287.86
2018-03-23T02:29:26.785Z,93283.84
2018-03-23T02:31:54.133Z,93278.18
2018-03-23T02:34:22.374Z,93270.42
2018-03-23T02:36:49.698Z,93272.52
2018-03-23T02:39:17.088Z,93267.21
2018-03-23T02:41:44.471Z,93264.45
2018-03-23T02:44:11.858Z,93264.36
2018-03-23T02:46:40.087Z,93258.11
2018-03-23T02:49:07.434Z,93258.52
2018-03-23T02:51:34.787Z,93256.54
2018-03-23T02:54:02.109Z,93253.22
2018-03-23T02:56:29.543Z,93255.38
2018-03-23T02:58:56.929Z,93259.11
2018-03-23T03:01:24.274Z,93257.57
2018-03-23T03:03:52.000Z,93258.80
2018-03-23T03:06:20.979Z,93256.63
2018-03-23T03:08:48.312Z,93260.58
2018-03-23T03:11:15.735Z,93254.42
2018-03-23T03:13:43.052Z,93260.71
2018-03-23T03:16:11.134Z,93259.83
2018-03-23T03:18:40.284Z,93263.80
2018-03-23T03:21:07.802Z,93257.64
2018-03-23T03:23:35.219Z,93256.41
2018-03-23T03:26:02.603Z,93259.00
2018-03-23T03:28:30.747Z,93246.14
2018-03-23T03:30:58.084Z,93243.83
2018-03-23T03:33:25.402Z,93245.45
2018-03-23T03:35:52.750Z,93240.22
2018-03-23T03:38:20.181Z,93246.86
2018-03-23T03:40:47.807Z,93245.19
2018-03-23T03:43:15.142Z,93246.67
2018-03-23T03:45:43.462Z,93248.66
2018-03-23T03:48:10.787Z,93246.48
2018-03-23T03:50:38.171Z,93252.80
2018-03-23T03:53:05.529Z,93241.32
2018-03-23T03:55:32.940Z,93241.50
2018-03-23T03:58:00.303Z,93241.73
2018-03-23T04:00:27.811Z,93242.31
2018-03-23T04:02:55.142Z,93236.93
2018-03-23T04:05:23.471Z,93238.11
2018-03-23T04:07:50.774Z,93237.55
2018-03-23T04:10:18.100Z,93237.55
2018-03-23T04:12:45.443Z,93231.50
2018-03-23T04:15:12.828Z,93229.44
2018-03-23T04:17:40.140Z,93230.73
2018-03-23T04:20:07.614Z,93234.50
2018-03-23T04:22:34.974Z,93229.28
2018-03-23T04:25:02.331Z,93226.80
2018-03-23T04:27:29.691Z,93227.62
2018-03-23T04:29:57.030Z,93225.09
2018-03-23T04:32:24.357Z,93222.12
2018-03-23T04:34:51.731Z,93214.58
2018-03-23T04:37:19.073Z,93211.84
2018-03-23T04:39:46.508Z,93216.46
2018-03-23T04:42:13.803Z,93212.84
2018-03-23T04:44:41.233Z,93213.62
2018-03-23T04:47:08.666Z,93208.16
2018-03-23T04:49:36.828Z,93202.39
2018-03-23T04:52:04.190Z,93205.46
2018-03-23T04:54:31.502Z,93206.05
2018-03-23T04:56:58.866Z,93201.69
2018-03-23T04:59:26.211Z,93196.86
2018-03-23T05:01:53.550Z,93205.24
2018-03-23T05:04:21.011Z,93196.45
2018-03-23T05:06:48.348Z,93198.38
2018-03-23T05:09:15.663Z,93198.63
2018-03-23T05:11:42.986Z,93196.86
2018-03-23T05:14:10.306Z,93201.36
2018-03-23T05:16:37.676Z,93196.34
2018-03-23T05:19:05.053Z,93200.81
2018-03-23T05:21:32.405Z,93200.41
2018-03-23T05:23:59.807Z,93190.40
2018-03-23T05:26:27.883Z,93191.29
2018-03-23T05:28:56.797Z,93194.13
2018-03-23T05:31:24.146Z,93193.17
2018-03-23T05:33:52.016Z,93193.58
2018-03-23T05:36:19.365Z,93196.02
2018-03-23T05:38:46.756Z,93196.42
2018-03-23T05:41:14.944Z,93193.84
2018-03-23T05:43:42.271Z,93195.77
2018-03-23T05:46:09.650Z,93194.09
2018-03-23T05:48:36.958Z,93195.80
2018-03-23T05:51:04.378Z,93201.63
2018-03-23T05:53:31.736Z,93202.37
2018-03-23T05:55:59.083Z,93201.41
2018-03-23T05:58:27.172Z,93194.80
2018-03-23T06:00:54.557Z,93194.39
2018-03-23T06:03:21.901Z,93203.44
2018-03-23T06:05:50.094Z,93201.70
2018-03-23T06:08:17.423Z,93205.17
2018-03-23T06:10:44.876Z,93192.58
2018-03-23T06:13:13.202Z,93188.21
2018-03-23T06:15:40.519Z,93183.91
2018-03-23T06:18:07.938Z,93183.83
2018-03-23T06:20:35.274Z,93192.53
2018-03-23T06:23:02.615Z,93189.64
2018-03-23T06:25:30.001Z,93191.49
2018-03-23T06:27:57.343Z,93184.38
2018-03-23T06:30:24.939Z,93179.45
2018-03-23T06:32:52.287Z,93172.50
2018-03-23T06:35:20.377Z,93169.33
2018-03-23T06:37:47.748Z,93163.03
2018-03-23T06:40:15.119Z,93164.39
2018-03-23T06:42:42.475Z,93165.66
2018-03-23T06:45:09.838Z,93162.20
2018-03-23T06:47:37.183Z,93158.45
2018-03-23T06:50:04.746Z,93157.51
2018-03-23T06:52:32.178Z,93158.02
2018-03-23T06:54:59.555Z,93153.95
2018-03-23T06:57:27.498Z,93154.76
2018-03-23T06:59:54.835Z,93159.53
2018-03-23T07:02:22.207Z,93154.86
2018-03-23T07:04:49.570Z,93155.92
2018-03-23T07:07:16.971Z,93155.85
2018-03-23T07:09:44.280Z,93158.81
2018-03-23T07:12:11.617Z,93161.03
2018-03-23T07:14:38.930Z,93156.45
2018-03-23T07:17:07.109Z,93155.23
2018-03-23T07:19:34.468Z,93150.98
2018-03-23T07:22:02.843Z,93160.67
2018-03-23T07:24:30.168Z,93158.77
2018-03-23T07:26:57.492Z,93149.94
2018-03-23T07:29:24.839Z,93156.28
2018-03-23T07:31:52.171Z,93159.27
2018-03-23T07:34:19.510Z,93155.02
2018-03-23T07:36:48.210Z,93153.73
2018-03-23T07:39:15.570Z,93151.88
2018-03-23T07:41:42.896Z,93148.14
2018-03-23T07:44:10.399Z,93160.23
2018-03-23T07:46:37.762Z,93152.41
2018-03-23T07:49:05.152Z,93155.24
2018-03-23T07:51:32.490Z,93151.03
2018-03-23T07:53:59.845Z,93146.23
2018-03-23T07:56:27.152Z,93154.08
2018-03-23T07:58:54.455Z,93144.84
2018-03-23T08:01:21.813Z,93142.41
2018-03-23T08:03:49.201Z,93141.74
2018-03-23T08:06:17.302Z,93146.51
2018-03-23T08:08:45.416Z,93138.58
2018-03-23T08:11:12.746Z,93140.03
2018-03-23T08:13:40.052Z,93138.65
2018-03-23T08:16:08.144Z,93132.53
2018-03-23T08:18:35.518Z,93129.76
2018-03-23T08:21:03.214Z,93130.28
2018-03-23T08:23:30.532Z,93131.75
2018-03-23T08:25:58.402Z,93129.80
2018-03-23T08:28:25.795Z,93127.23
2018-03-23T08:30:53.166Z,93122.25
2018-03-23T08:33:20.470Z,93119.13
2018-03-23T08:35:47.817Z,93120.40
2018-03-23T08:38:15.276Z,93109.83
2018-03-23T08:40:42.617Z,93107.08
2018-03-23T08:43:10.462Z,93109.81
2018-03-23T08:45:37.803Z,93111.25
2018-03-23T08:48:05.817Z,93118.76
2018-03-23T08:50:33.622Z,93118.11
2018-03-23T08:53:00.946Z,93112.88
2018-03-23T08:55:28.427Z,93108.47
2018-03-23T08:57:55.958Z,93109.68
2018-03-23T09:00:23.274Z,93107.16
2018-03-23T09:02:51.378Z,93105.61
2018-03-23T09:05:18.726Z,93093.48
2018-03-23T09:07:46.038Z,93089.94
2018-03-23T09:10:13.471Z,93093.34
2018-03-23T09:12:40.816Z,93092.62
2018-03-23T09:15:08.175Z,93090.38
2018-03-23T09:17:35.556Z,93095.91
2018-03-23T09:20:03.699Z,93092.77
2018-03-23T09:22:32.090Z,93090.61
2018-03-23T09:24:59.452Z,93085.25
2018-03-23T09:27:28.966Z,93080.79
2018-03-23T09:29:57.535Z,93083.98
2018-03-23T09:32:24.855Z,93076.78
2018-03-23T09:34:54.884Z,93078.18
2018-03-23T09:37:22.223Z,93071.44
2018-03-23T09:39:49.596Z,93066.81
2018-03-23T09:42:16.793Z,93066.13
2018-03-23T09:44:47.226Z,93063.84
2018-03-23T09:47:15.412Z,93057.09
2018-03-23T09:49:42.763Z,93057.37
2018-03-23T09:52:10.165Z,93057.89
2018-03-23T09:54:37.507Z,93056.55
2018-03-23T09:57:04.853Z,93046.58
2018-03-23T09:59:32.205Z,93041.33
2018-03-23T10:01:59.538Z,93042.43
2018-03-23T10:04:26.892Z,93035.84
2018-03-23T10:06:56.609Z,93040.00
2018-03-23T10:09:23.998Z,93035.39
2018-03-23T10:11:51.405Z,93033.52
2018-03-23T10:14:18.750Z,93035.18
2018-03-23T10:16:46.127Z,93031.86
2018-03-23T10:19:13.495Z,93030.58
2018-03-23T10:21:40.846Z,93028.38
2018-03-23T10:24:08.222Z,93026.13
2018-03-23T10:26:35.619Z,93025.53
2018-03-23T10:29:06.123Z,93024.73
2018-03-23T10:31:33.440Z,93019.91
2018-03-23T10:34:00.772Z,93018.35
2018-03-23T10:36:30.395Z,93018.21
2018-03-23T10:38:57.755Z,93012.61
2018-03-23T10:41:25.163Z,93017.89
2018-03-23T10:43:55.184Z,93003.44
2018-03-23T10:46:23.271Z,93008.05
2018-03-23T10:48:54.016Z,93002.14
2018-03-23T10:51:21.367Z,93010.89
2018-03-23T10:53:53.251Z,93008.11
2018-03-23T10:56:20.667Z,93001.50
2018-03-23T10:58:51.085Z,93003.06
2018-03-23T11:03:47.991Z,92995.56
2018-03-23T11:06:15.346Z,92994.45
2018-03-23T11:08:45.834Z,92994.53
2018-03-23T11:11:13.189Z,92995.36
2018-03-23T11:13:40.634Z,92987.86
2018-03-23T11:16:08.037Z,92988.53
2018-03-23T11:18:35.458Z,92980.18
2018-03-23T11:21:02.872Z,92979.38
2018-03-23T11:23:30.214Z,92977.06
2018-03-23T11:25:57.538Z,92978.99
2018-03-23T11:28:25.142Z,92970.12
2018-03-23T11:30:52.487Z,92974.50
2018-03-23T11:33:20.027Z,92980.73
2018-03-23T11:35:50.764Z,92974.00
2018-03-23T11:38:18.216Z,92970.67
2018-03-23T11:40:45.567Z,92966.94
2018-03-23T11:43:16.257Z,92968.05
2018-03-23T11:45:43.618Z,92960.16
2018-03-23T11:48:10.956Z,92962.73
2018-03-23T11:50:39.136Z,92961.15
2018-03-23T11:53:07.285Z,92955.09
2018-03-23T11:55:34.644Z,92952.66
2018-03-23T11:58:02.419Z,92946.95
2018-03-23T12:00:29.769Z,92944.44
2018-03-23T12:02:57.258Z,92950.81
2018-03-23T12:05:24.648Z,92940.91
2018-03-23T12:07:51.997Z,92939.70
2018-03-23T12:10:19.684Z,92941.83
2018-03-23T12:12:47.042Z,92935.25
2018-03-23T12:15:15.531Z,92928.27
2018-03-23T12:17:42.919Z,92929.55
2018-03-23T12:20:12.984Z,92930.34
2018-03-23T12:22:41.465Z,92931.68
2018-03-23T12:25:09.933Z,92924.02
2018-03-23T12:27:39.953Z,92917.56
2018-03-23T12:30:08.449Z,92921.21
2018-03-23T12:32:36.912Z,92916.38
2018-03-23T12:35:06.954Z,92910.66
2018-03-23T12:37:35.411Z,92906.31
2018-03-23T12:40:05.215Z,92902.90
2018-03-23T12:42:33.673Z,92891.64
2018-03-23T12:45:03.554Z,92885.59
2018-03-23T12:47:32.081Z,92885.48
2018-03-23T12:50:00.490Z,92884.53
2018-03-23T12:52:30.054Z,92872.13
2018-03-23T12:54:58.497Z,92876.33
2018-03-23T12:57:26.970Z,92878.94
2018-03-23T12:59:55.361Z,92874.72
2018-03-23T13:02:23.822Z,92871.11
2018-03-23T13:04:51.151Z,92873.48
2018-03-23T13:07:18.480Z,92868.15
2018-03-23T13:09:45.859Z,92863.05
2018-03-23T13:12:17.198Z,92860.61
2018-03-23T13:14:45.676Z,92858.83
2018-03-23T13:17:14.167Z,92858.64
2018-03-23T13:19:42.578Z,92848.23
2018-03-23T13:22:11.883Z,92849.27
2018-03-23T13:24:40.407Z,92850.50
2018-03-23T13:27:08.860Z,92855.20
2018-03-23T13:29:37.359Z,92852.33
2018-03-23T13:32:05.749Z,92846.48
2018-03-23T13:34:34.201Z,92838.27
2018-03-23T13:37:02.638Z,92843.10
2018-03-23T13:39:31.116Z,92835.33
2018-03-23T13:41:59.545Z,92834.83
2018-03-23T13:44:28.013Z,92827.58
2018-03-23T13:46:56.453Z,92821.37
2018-03-23T13:49:26.138Z,92819.78
2018-03-23T13:51:54.658Z,92818.38
2018-03-23T13:54:23.370Z,92812.83
2018-03-23T13:56:53.089Z,92805.94
2018-03-23T13:59:26.470Z,92810.57
2018-03-23T14:01:53.955Z,92802.53
2018-03-23T14:04:21.335Z,92792.51
2018-03-23T14:06:48.752Z,92797.72
2018-03-23T14:09:18.787Z,92802.44
2018-03-23T14:11:47.318Z,92796.52
2018-03-23T14:14:14.739Z,92790.70
2018-03-23T14:16:42.169Z,92788.27
2018-03-23T14:19:11.712Z,92786.81
2018-03-23T14:21:39.058Z,92784.83
2018-03-23T14:24:08.501Z,92773.19
2018-03-23T14:26:36.877Z,92780.05
2018-03-23T14:29:04.252Z,92782.05
2018-03-23T14:31:34.134Z,92770.00
2018-03-23T14:34:02.607Z,92769.38
2018-03-23T14:36:31.260Z,92759.49
2018-03-23T14:38:59.746Z,92762.87
2018-03-23T14:41:28.618Z,92764.30
2018-03-23T14:43:57.083Z,92751.58
2018-03-23T14:46:25.489Z,92761.30
2018-03-23T14:48:53.993Z,92746.22
2018-03-23T14:51:22.478Z,92747.84
2018-03-23T14:53:51.053Z,92741.22
2018-03-23T14:56:18.546Z,92742.81
2018-03-23T15:24:14.361Z,92720.78
2018-03-23T15:26:41.756Z,92720.91
2018-03-23T15:29:11.650Z,92723.61
2018-03-23T15:31:41.389Z,92723.20
2018-03-23T15:34:08.723Z,92727.83
2018-03-23T15:36:38.841Z,92716.18
2018-03-23T15:39:08.594Z,92707.73
2018-03-23T15:41:37.088Z,92706.92
2018-03-23T15:44:06.993Z,92702.51
2018-03-23T15:46:37.072Z,92706.14
2018-03-23T15:49:05.550Z,92701.48
2018-03-23T15:51:34.042Z,92697.50
2018-03-23T15:54:01.380Z,92700.63
2018-03-23T15:56:31.013Z,92700.73
2018-03-23T15:58:59.434Z,92695.31
2018-03-23T16:01:27.830Z,92692.11
2018-03-23T16:03:56.391Z,92694.12
2018-03-23T16:06:23.747Z,92692.50
2018-03-23T16:08:53.507Z,92695.14
2018-03-23T16:11:21.965Z,92702.16
2018-03-23T16:13:50.397Z,92696.55
2018-03-23T16:16:18.779Z,92696.77
2018-03-23T16:18:47.241Z,92701.48
2018-03-23T16:21:15.672Z,92694.35
2018-03-23T16:23:45.761Z,92699.28
2018-03-23T16:26:14.209Z,92694.97
2018-03-23T16:28:44.889Z,92691.74
2018-03-23T16:31:13.368Z,92698.19
2018-03-23T16:33:41.872Z,92694.37
2018-03-23T16:36:10.416Z,92690.95
2018-03-23T16:38:38.914Z,92685.92
2018-03-23T16:41:07.422Z,92685.34
2018-03-23T16:43:39.387Z,92683.33
2018-03-23T16:46:07.901Z,92684.53
2018-03-23T16:48:36.334Z,92683.75
2018-03-23T16:51:08.420Z,92682.02
2018-03-23T16:53:36.897Z,92678.71
2018-03-23T16:56:06.993Z,92677.92
2018-03-23T16:58:36.361Z,92678.33
2018-03-23T17:01:08.566Z,92677.52
2018-03-23T17:03:39.148Z,92686.34
2018-03-23T17:06:07.654Z,92678.91
2018-03-23T17:08:36.077Z,92684.52
2018-03-23T17:11:06.561Z,92681.52
2018-03-23T17:13:39.131Z,92681.20
2018-03-23T17:16:07.581Z,92682.92
2018-03-23T17:18:36.015Z,92677.97
2018-03-23T17:21:06.565Z,92678.20
2018-03-23T17:23:34.976Z,92678.66
2018-03-23T17:26:03.449Z,92676.28
2018-03-23T17:28:31.934Z,92677.05
2018-03-23T17:31:00.430Z,92672.05
2018-03-23T17:33:28.892Z,92677.92
2018-03-23T17:36:01.437Z,92677.64
2018-03-23T17:38:32.034Z,92683.25
2018-03-23T17:41:00.557Z,92673.02
2018-03-23T17:43:29.178Z,92669.21
2018-03-23T17:45:56.577Z,92673.52
2018-03-23T17:48:26.633Z,92673.00
2018-03-23T17:50:56.426Z,92669.19
2018-03-23T17:53:26.465Z,92668.39
2018-03-23T17:55:56.361Z,92672.48
2018-03-23T17:58:24.864Z,92670.16
2018-03-23T18:00:53.329Z,92669.92
2018-03-23T18:03:21.825Z,92666.14
2018-03-23T18:05:56.045Z,92663.10
2018-03-23T18:08:24.500Z,92663.91
2018-03-23T18:10:52.983Z,92670.54
2018-03-23T18:13:21.468Z,92665.12
2018-03-23T18:15:49.900Z,92666.30
2018-03-23T18:18:18.388Z,92663.48
2018-03-23T18:20:48.868Z,92666.23
2018-03-23T18:23:18.932Z,92663.50
2018-03-23T18:25:47.367Z,92666.27
2018-03-23T18:28:17.300Z,92673.35
2018-03-23T18:30:45.809Z,92674.85
2018-03-23T18:33:16.282Z,92677.27
2018-03-23T18:35:44.753Z,92681.86
2018-03-23T18:38:12.343Z,92677.73
2018-03-23T18:40:42.412Z,92682.41
2018-03-23T18:43:13.025Z,92683.38
2018-03-23T18:45:41.460Z,92674.95
2018-03-23T18:48:09.945Z,92671.35
2018-03-23T18:50:38.425Z,92669.41
2018-03-23T18:53:06.921Z,92666.45
2018-03-23T18:55:35.398Z,92663.33
2018-03-23T18:58:03.885Z,92659.10
2018-03-23T19:00:32.405Z,92661.83
2018-03-23T19:03:00.841Z,92659.71
2018-03-23T19:05:29.343Z,92661.50
2018-03-23T19:07:59.382Z,92652.72
2018-03-23T19:10:27.885Z,92653.00
2018-03-23T19:12:58.193Z,92649.16
2018-03-23T19:15:28.541Z,92644.74
2018-03-23T19:17:56.930Z,92642.44
2018-03-23T19:20:25.361Z,92638.80
2018-03-23T19:22:53.899Z,92638.05
2018-03-23T19:25:24.578Z,92634.59
2018-03-23T19:27:57.094Z,92630.24
2018-03-23T19:30:25.576Z,92633.41
2018-03-23T19:32:54.053Z,92631.32
2018-03-23T19:35:22.534Z,92627.53
2018-03-23T19:37:52.759Z,92626.58
2018-03-23T19:40:22.892Z,92629.72
2018-03-23T19:42:51.355Z,92629.49
2018-03-23T19:45:21.612Z,92629.55
2018-03-23T19:47:51.726Z,92613.89
2018-03-23T19:50:20.210Z,92619.38
2018-03-23T19:52:48.691Z,92614.02
2018-03-23T19:55:17.201Z,92610.88
2018-03-23T19:57:47.577Z,92614.77
2018-03-23T20:00:16.062Z,92612.90
2018-03-23T20:02:44.617Z,92613.35
2018-03-23T20:05:15.125Z,92604.16
2018-03-23T20:07:43.656Z,92600.40
2018-03-23T20:10:12.182Z,92597.55
2018-03-23T20:12:42.592Z,92599.49
2018-03-23T20:15:12.027Z,92596.98
2018-03-23T20:17:46.633Z,92598.11
2018-03-23T20:20:21.199Z,92603.56
2018-03-23T20:22:52.090Z,92598.61
2018-03-23T20:25:20.561Z,92594.14
2018-03-23T20:27:55.213Z,92593.77
2018-03-23T20:30:23.666Z,92590.02
2018-03-23T20:32:52.155Z,92581.85
2018-03-23T20:35:22.812Z,92587.48
2018-03-23T20:37:51.281Z,92585.56
2018-03-23T20:40:19.775Z,92588.14
2018-03-23T20:42:48.211Z,92580.93
2018-03-23T20:45:16.721Z,92581.46
2018-03-23T20:47:49.363Z,92581.84
2018-03-23T20:50:17.864Z,92590.46
2018-03-23T20:52:46.352Z,92582.21
2018-03-23T20:55:16.906Z,92588.12
2018-03-23T20:57:47.324Z,92592.29
2018-03-23T21:00:15.773Z,92588.41
2018-03-23T21:02:46.243Z,92579.54
2018-03-23T21:05:16.579Z,92579.97
2018-03-23T21:07:45.126Z,92575.97
2018-03-23T21:10:15.554Z,92573.39
2018-03-23T21:12:47.621Z,92572.15
2018-03-23T21:15:16.066Z,92569.97
2018-03-23T21:17:46.535Z,92561.24
2018-03-23T21:20:15.008Z,92558.25
2018-03-23T21:22:43.465Z,92561.69
2018-03-23T21:25:14.053Z,92555.02
2018-03-23T21:27:42.546Z,92552.97
2018-03-23T21:30:12.806Z,92558.06
2018-03-23T21:32:41.258Z,92554.31
2018-03-23T21:35:13.982Z,92554.03
2018-03-23T21:37:42.595Z,92545.91
2018-03-23T21:40:11.046Z,92544.37
2018-03-23T21:42:41.750Z,92543.56
2018-03-23T21:45:15.722Z,92534.88
2018-03-23T21:47:44.218Z,92537.34
2018-03-23T21:50:12.606Z,92540.58
2018-03-23T21:52:42.625Z,92530.80
2018-03-23T21:55:15.114Z,92531.80
2018-03-23T21:57:45.657Z,92529.13
2018-03-23T22:00:14.718Z,92523.32
2018-03-23T22:02:43.179Z,92523.56
2018-03-23T22:05:11.662Z,92518.91
2018-03-23T22:07:40.078Z,92516.20
2018-03-23T22:10:12.415Z,92513.30
2018-03-23T22:12:43.850Z,92512.79
2018-03-23T22:15:12.339Z,92511.09
2018-03-23T22:17:40.808Z,92503.22
2018-03-23T22:20:10.957Z,92508.14
2018-03-23T22:22:39.413Z,92499.95
2018-03-23T22:25:07.861Z,92489.89
2018-03-23T22:27:42.435Z,92481.94
2018-03-23T22:30:10.857Z,92482.55
2018-03-23T22:32:41.067Z,92475.59
2018-03-23T22:35:12.005Z,92472.00
2018-03-23T22:37:42.397Z,92475.96
2018-03-23T22:40:10.849Z,92467.93
2018-03-23T22:42:39.289Z,92467.92
2018-03-23T22:45:07.818Z,92472.33
2018-03-23T22:47:36.234Z,92465.63
2018-03-23T22:50:06.213Z,92466.75
2018-03-23T22:52:34.668Z,92469.26
2018-03-23T22:55:03.165Z,92466.23
2018-03-23T22:57:31.612Z,92468.21
2018-03-23T23:00:00.057Z,92459.77
2018-03-23T23:02:28.592Z,92456.50
2018-03-23T23:04:57.025Z,92460.27
2018-03-23T23:07:27.594Z,92460.06
2018-03-23T23:09:56.049Z,92444.99
2018-03-23T23:12:24.489Z,92448.45
2018-03-23T23:14:55.011Z,92448.44
2018-03-23T23:17:23.615Z,92447.29
2018-03-23T23:19:53.684Z,92449.23
2018-03-23T23:22:22.273Z,92447.59
2018-03-23T23:24:52.302Z,92449.84
2018-03-23T23:27:23.635Z,92446.73
2018-03-23T23:29:52.074Z,92445.91
2018-03-23T23:32:20.581Z,92442.81
2018-03-23T23:34:51.168Z,92435.02
2018-03-23T23:37:19.906Z,92431.70
2018-03-23T23:39:48.306Z,92421.36
2018-03-23T23:42:16.765Z,92420.51
2018-03-23T23:44:45.246Z,92412.33
2018-03-23T23:47:15.876Z,92403.56
2018-03-23T23:49:44.273Z,92410.38
2018-03-23T23:52:12.798Z,92400.39
2018-03-23T23:54:41.196Z,92403.08
2018-03-23T23:57:11.762Z,92404.58
2018-03-23T23:59:42.032Z,92399.73
